Ana Sayfa
METAR-TAF:

METAR-TAF

Havaalanları :

Ko Samui, Tayland

Enlem: 09-32-52N, Boylam: 100-03-44E, yükseklik: 20 m

Güncel hava durumu gözlemi

Rapor saat 10:30 UTC de 34 dakika önce yapıldı.
Rüzgar güneydoğudan 6 kt
Sıcaklık 30°C
Nem 66%
Basınç 1013 hPa
Görüş mesafesi 10 km veya daha fazla
2000 ft yükseklikte az bulutlu

METAR: VTSM 171030Z 13006KT 9999 FEW020 30/23 Q1013 NOSIG

Saat: 18:04 (11:04 UTC)

Tahmin

Rapor saat 05:00 UTC de 6 saat ve 4 dakika önce yapıldı.
Ayın 17'si saat 06 UTC'den ayın 18'si saat 06 UTC'ye kadar geçerli Tahmin
Rüzgar güneydoğudan 8 kt
Görüş mesafesi 10 km veya daha fazla
2000 ft yükseklikte az bulutlu
Geçici
ayın 17'si saat 20 UTC'den ayın 18'si saat 02 UTC'ye kadar
Görüş mesafesi: 5000 m
1500 ft yükseklikte parçalı bulutlu
10000 ft yükseklikte parçalı çok bulutlu
yağmur

TAF: VTSM 170500Z 1706/1806 14008KT 9999 FEW020 TEMPO 1720/1802 5000 RA SCT015 BKN100

4.000'den fazla havaalanı için hava durumu gözlemleri ve tahminleri (METAR ve TAF raporları).

Kullanılabilir istasyonlar harita üzerinde sarı ve kırmızı noktalarla gösterilir.

İstasyonun adını görmek için fareyi noktanın üzerinde gezdirin.

Sonrasında hava gözlem ve tahminlerini görmek için tıklayın.

Haritayı değiştirmek için: yaklaştırmak için siyah artı işaretli yeşil düğmeye ve uzaklaştırmak için de eksi işaretli düğmeye hızla tıklayın; bitişik haritalar için yeşil okları kullanın.


METAR-TAF: